Lakerlopen, Netherlands
Current Conditions -  °F | °C
As of 12:29 AM on Sunday 21 Dec 2014 (Local Time) from EHEH Reporting Station
Broken Clouds Broken Clouds  
Wind Chill: 38°   Ceiling: 2300
Heat Index: 43°   Visibility: 6mi
Dew Point: 39°   Wind: 8mph
Humidity: 87%   Direction: 250°WSW
Pressure: 30.36"   Gusts: NA
Location:  51.44°N, 5.5°E
Report Text: EHEH 202329Z AUTO 25007KT 9999 FEW010 BKN023 BKN028 06/04 Q1028 WHT
Loading
Personal Weather Stations






























Interactive Weather Map New forecast layout! Learn more

10-Day Weather Forecast

Advertisements
Track Severe Weather on mobile